sensor_id;sensor_type;location;lat;lon;timestamp;P1;durP1;ratioP1;P2;durP2;ratioP2
40489;SDS011;26196;52.302;10.572;2023-08-21T00:06:36;4.15;;;2.55;;
40489;SDS011;26196;52.302;10.572;2023-08-21T00:10:37;4.43;;;3.23;;
40489;SDS011;26196;52.302;10.572;2023-08-21T00:14:38;4.05;;;2.78;;
40489;SDS011;26196;52.302;10.572;2023-08-21T00:23:15;4.70;;;2.90;;
40489;SDS011;26196;52.302;10.572;2023-08-21T00:27:16;6.30;;;3.50;;
40489;SDS011;26196;52.302;10.572;2023-08-21T00:31:16;3.23;;;2.23;;
40489;SDS011;26196;52.302;10.572;2023-08-21T00:35:16;4.80;;;3.28;;
40489;SDS011;26196;52.302;10.572;2023-08-21T00:39:17;8.27;;;3.27;;
40489;SDS011;26196;52.302;10.572;2023-08-21T00:43:17;3.60;;;3.27;;
40489;SDS011;26196;52.302;10.572;2023-08-21T00:47:18;4.65;;;2.75;;
40489;SDS011;26196;52.302;10.572;2023-08-21T00:51:19;4.55;;;2.60;;
40489;SDS011;26196;52.302;10.572;2023-08-21T00:59:55;3.63;;;2.60;;
40489;SDS011;26196;52.302;10.572;2023-08-21T01:03:55;4.40;;;2.70;;
40489;SDS011;26196;52.302;10.572;2023-08-21T01:08:02;6.03;;;3.13;;
40489;SDS011;26196;52.302;10.572;2023-08-21T01:12:09;7.75;;;2.95;;
40489;SDS011;26196;52.302;10.572;2023-08-21T01:16:17;6.28;;;3.08;;
40489;SDS011;26196;52.302;10.572;2023-08-21T01:20:19;6.50;;;3.10;;
40489;SDS011;26196;52.302;10.572;2023-08-21T01:24:20;3.05;;;2.70;;
40489;SDS011;26196;52.302;10.572;2023-08-21T01:28:20;4.37;;;2.90;;
40489;SDS011;26196;52.302;10.572;2023-08-21T01:32:23;7.30;;;2.87;;
40489;SDS011;26196;52.302;10.572;2023-08-21T01:36:29;5.63;;;2.58;;
40489;SDS011;26196;52.302;10.572;2023-08-21T01:40:30;5.53;;;2.80;;
40489;SDS011;26196;52.302;10.572;2023-08-21T01:44:31;4.72;;;2.50;;
40489;SDS011;26196;52.302;10.572;2023-08-21T01:53:08;5.00;;;2.92;;
40489;SDS011;26196;52.302;10.572;2023-08-21T01:57:08;3.97;;;2.80;;
40489;SDS011;26196;52.302;10.572;2023-08-21T02:01:09;6.47;;;2.97;;
40489;SDS011;26196;52.302;10.572;2023-08-21T02:05:09;6.60;;;3.07;;
40489;SDS011;26196;52.302;10.572;2023-08-21T02:09:09;3.87;;;2.87;;
40489;SDS011;26196;52.302;10.572;2023-08-21T02:13:10;5.30;;;2.50;;
40489;SDS011;26196;52.302;10.572;2023-08-21T02:17:10;7.27;;;2.80;;
40489;SDS011;26196;52.302;10.572;2023-08-21T02:21:11;4.90;;;2.43;;
40489;SDS011;26196;52.302;10.572;2023-08-21T02:25:11;3.87;;;2.40;;
40489;SDS011;26196;52.302;10.572;2023-08-21T02:29:11;4.35;;;3.22;;
40489;SDS011;26196;52.302;10.572;2023-08-21T02:33:12;3.30;;;2.50;;
40489;SDS011;26196;52.302;10.572;2023-08-21T02:37:12;8.68;;;2.97;;
40489;SDS011;26196;52.302;10.572;2023-08-21T02:41:13;5.10;;;2.92;;
40489;SDS011;26196;52.302;10.572;2023-08-21T02:45:13;5.43;;;3.40;;
40489;SDS011;26196;52.302;10.572;2023-08-21T02:49:13;5.35;;;2.53;;
40489;SDS011;26196;52.302;10.572;2023-08-21T02:57:48;6.85;;;3.45;;
40489;SDS011;26196;52.302;10.572;2023-08-21T03:01:48;4.13;;;3.10;;
40489;SDS011;26196;52.302;10.572;2023-08-21T03:05:49;4.63;;;2.25;;
40489;SDS011;26196;52.302;10.572;2023-08-21T03:09:49;7.90;;;3.37;;
40489;SDS011;26196;52.302;10.572;2023-08-21T03:13:50;3.65;;;2.33;;
40489;SDS011;26196;52.302;10.572;2023-08-21T03:17:50;5.83;;;2.77;;
40489;SDS011;26196;52.302;10.572;2023-08-21T03:21:50;19.88;;;5.15;;
40489;SDS011;26196;52.302;10.572;2023-08-21T03:25:52;17.77;;;6.00;;
40489;SDS011;26196;52.302;10.572;2023-08-21T03:29:53;17.55;;;4.93;;
40489;SDS011;26196;52.302;10.572;2023-08-21T03:33:53;18.90;;;4.63;;
40489;SDS011;26196;52.302;10.572;2023-08-21T03:37:53;10.80;;;5.10;;
40489;SDS011;26196;52.302;10.572;2023-08-21T03:41:53;11.07;;;4.60;;
40489;SDS011;26196;52.302;10.572;2023-08-21T03:50:28;11.27;;;4.53;;
40489;SDS011;26196;52.302;10.572;2023-08-21T04:03:40;12.27;;;3.85;;
40489;SDS011;26196;52.302;10.572;2023-08-21T04:12:15;8.43;;;3.67;;
40489;SDS011;26196;52.302;10.572;2023-08-21T04:16:15;6.60;;;3.50;;
40489;SDS011;26196;52.302;10.572;2023-08-21T04:29:26;8.57;;;3.45;;
40489;SDS011;26196;52.302;10.572;2023-08-21T04:33:30;7.23;;;3.07;;
40489;SDS011;26196;52.302;10.572;2023-08-21T04:41:39;8.95;;;3.15;;
40489;SDS011;26196;52.302;10.572;2023-08-21T04:45:52;13.60;;;3.60;;
40489;SDS011;26196;52.302;10.572;2023-08-21T04:49:55;9.02;;;3.55;;
40489;SDS011;26196;52.302;10.572;2023-08-21T04:53:55;3.83;;;2.90;;
40489;SDS011;26196;52.302;10.572;2023-08-21T05:02:30;6.60;;;2.50;;
40489;SDS011;26196;52.302;10.572;2023-08-21T05:06:30;7.43;;;3.17;;
40489;SDS011;26196;52.302;10.572;2023-08-21T05:10:31;7.60;;;3.28;;
40489;SDS011;26196;52.302;10.572;2023-08-21T05:14:31;5.80;;;2.53;;
40489;SDS011;26196;52.302;10.572;2023-08-21T05:23:09;6.82;;;2.72;;
40489;SDS011;26196;52.302;10.572;2023-08-21T05:27:09;4.97;;;3.03;;
40489;SDS011;26196;52.302;10.572;2023-08-21T05:31:10;75.87;;;15.23;;
40489;SDS011;26196;52.302;10.572;2023-08-21T05:35:10;72.53;;;15.95;;
40489;SDS011;26196;52.302;10.572;2023-08-21T05:39:10;68.70;;;12.67;;
40489;SDS011;26196;52.302;10.572;2023-08-21T05:43:11;35.60;;;8.18;;
40489;SDS011;26196;52.302;10.572;2023-08-21T05:47:11;24.35;;;7.22;;
40489;SDS011;26196;52.302;10.572;2023-08-21T05:51:11;11.37;;;4.97;;
40489;SDS011;26196;52.302;10.572;2023-08-21T05:59:49;13.25;;;4.45;;
40489;SDS011;26196;52.302;10.572;2023-08-21T06:03:49;7.80;;;4.23;;
40489;SDS011;26196;52.302;10.572;2023-08-21T06:07:50;8.37;;;3.57;;
40489;SDS011;26196;52.302;10.572;2023-08-21T06:16:26;5.30;;;3.22;;
40489;SDS011;26196;52.302;10.572;2023-08-21T06:20:26;6.93;;;3.30;;
40489;SDS011;26196;52.302;10.572;2023-08-21T06:24:27;6.50;;;3.10;;
40489;SDS011;26196;52.302;10.572;2023-08-21T06:28:27;4.70;;;3.10;;
40489;SDS011;26196;52.302;10.572;2023-08-21T06:32:27;6.80;;;2.77;;
40489;SDS011;26196;52.302;10.572;2023-08-21T06:36:28;11.87;;;3.13;;
40489;SDS011;26196;52.302;10.572;2023-08-21T06:45:03;5.63;;;3.08;;
40489;SDS011;26196;52.302;10.572;2023-08-21T06:49:05;4.28;;;2.65;;
40489;SDS011;26196;52.302;10.572;2023-08-21T06:53:05;3.77;;;2.37;;
40489;SDS011;26196;52.302;10.572;2023-08-21T06:57:06;3.88;;;3.00;;
40489;SDS011;26196;52.302;10.572;2023-08-21T07:05:40;4.10;;;2.63;;
40489;SDS011;26196;52.302;10.572;2023-08-21T07:09:41;5.13;;;3.00;;
40489;SDS011;26196;52.302;10.572;2023-08-21T07:13:42;6.20;;;3.23;;
40489;SDS011;26196;52.302;10.572;2023-08-21T07:17:42;3.17;;;2.13;;
40489;SDS011;26196;52.302;10.572;2023-08-21T07:21:42;5.50;;;3.17;;
40489;SDS011;26196;52.302;10.572;2023-08-21T07:25:43;4.43;;;2.70;;
40489;SDS011;26196;52.302;10.572;2023-08-21T07:29:43;3.83;;;2.13;;
40489;SDS011;26196;52.302;10.572;2023-08-21T07:33:43;4.70;;;2.23;;
40489;SDS011;26196;52.302;10.572;2023-08-21T07:37:44;6.87;;;3.43;;
40489;SDS011;26196;52.302;10.572;2023-08-21T07:41:45;4.40;;;2.00;;
40489;SDS011;26196;52.302;10.572;2023-08-21T07:45:45;4.57;;;2.17;;
40489;SDS011;26196;52.302;10.572;2023-08-21T07:49:45;2.83;;;2.00;;
40489;SDS011;26196;52.302;10.572;2023-08-21T07:53:45;2.73;;;2.03;;
40489;SDS011;26196;52.302;10.572;2023-08-21T07:57:46;4.73;;;2.07;;
40489;SDS011;26196;52.302;10.572;2023-08-21T08:01:46;4.70;;;2.07;;
40489;SDS011;26196;52.302;10.572;2023-08-21T08:05:46;4.33;;;1.77;;
40489;SDS011;26196;52.302;10.572;2023-08-21T08:14:24;5.43;;;3.08;;
40489;SDS011;26196;52.302;10.572;2023-08-21T08:18:24;4.67;;;1.67;;
40489;SDS011;26196;52.302;10.572;2023-08-21T08:22:25;4.20;;;2.17;;
40489;SDS011;26196;52.302;10.572;2023-08-21T08:26:25;3.83;;;1.43;;
40489;SDS011;26196;52.302;10.572;2023-08-21T08:30:25;5.27;;;1.87;;
40489;SDS011;26196;52.302;10.572;2023-08-21T08:34:26;3.13;;;1.60;;
40489;SDS011;26196;52.302;10.572;2023-08-21T08:38:26;3.20;;;1.77;;
40489;SDS011;26196;52.302;10.572;2023-08-21T08:42:26;3.67;;;1.43;;
40489;SDS011;26196;52.302;10.572;2023-08-21T08:46:27;2.67;;;1.30;;
40489;SDS011;26196;52.302;10.572;2023-08-21T08:50:32;3.33;;;1.45;;
40489;SDS011;26196;52.302;10.572;2023-08-21T08:54:33;3.42;;;1.88;;
40489;SDS011;26196;52.302;10.572;2023-08-21T09:03:10;2.53;;;1.33;;
40489;SDS011;26196;52.302;10.572;2023-08-21T09:07:12;3.25;;;1.40;;
40489;SDS011;26196;52.302;10.572;2023-08-21T09:11:12;4.00;;;1.70;;
40489;SDS011;26196;52.302;10.572;2023-08-21T09:15:17;2.80;;;2.37;;
40489;SDS011;26196;52.302;10.572;2023-08-21T09:24:03;4.22;;;1.55;;
40489;SDS011;26196;52.302;10.572;2023-08-21T09:28:04;4.05;;;1.80;;
40489;SDS011;26196;52.302;10.572;2023-08-21T09:32:06;2.05;;;1.40;;
40489;SDS011;26196;52.302;10.572;2023-08-21T09:36:06;3.50;;;1.50;;
40489;SDS011;26196;52.302;10.572;2023-08-21T09:44:51;2.35;;;1.40;;
40489;SDS011;26196;52.302;10.572;2023-08-21T09:48:52;4.07;;;1.58;;
40489;SDS011;26196;52.302;10.572;2023-08-21T09:57:28;2.33;;;1.30;;
40489;SDS011;26196;52.302;10.572;2023-08-21T10:01:28;5.22;;;1.75;;
40489;SDS011;26196;52.302;10.572;2023-08-21T10:05:34;1.40;;;1.00;;
40489;SDS011;26196;52.302;10.572;2023-08-21T10:09:36;2.08;;;1.00;;
40489;SDS011;26196;52.302;10.572;2023-08-21T10:22:47;3.42;;;1.00;;
40489;SDS011;26196;52.302;10.572;2023-08-21T10:26:49;2.38;;;1.33;;
40489;SDS011;26196;52.302;10.572;2023-08-21T10:35:28;2.35;;;1.00;;
40489;SDS011;26196;52.302;10.572;2023-08-21T10:39:31;2.60;;;1.17;;
40489;SDS011;26196;52.302;10.572;2023-08-21T10:43:44;2.40;;;1.08;;
40489;SDS011;26196;52.302;10.572;2023-08-21T10:47:45;2.25;;;1.00;;
40489;SDS011;26196;52.302;10.572;2023-08-21T10:56:25;4.20;;;1.20;;
40489;SDS011;26196;52.302;10.572;2023-08-21T11:00:26;2.97;;;1.05;;
40489;SDS011;26196;52.302;10.572;2023-08-21T11:09:03;3.08;;;1.20;;
40489;SDS011;26196;52.302;10.572;2023-08-21T11:13:06;2.53;;;1.10;;
40489;SDS011;26196;52.302;10.572;2023-08-21T11:17:07;1.88;;;1.15;;
40489;SDS011;26196;52.302;10.572;2023-08-21T11:21:09;3.15;;;1.20;;
40489;SDS011;26196;52.302;10.572;2023-08-21T11:29:46;3.05;;;1.23;;
40489;SDS011;26196;52.302;10.572;2023-08-21T11:33:51;5.13;;;1.50;;
40489;SDS011;26196;52.302;10.572;2023-08-21T11:37:51;3.13;;;1.20;;
40489;SDS011;26196;52.302;10.572;2023-08-21T11:46:32;2.53;;;0.90;;
40489;SDS011;26196;52.302;10.572;2023-08-21T11:50:34;4.05;;;1.25;;
40489;SDS011;26196;52.302;10.572;2023-08-21T11:54:35;2.92;;;1.50;;
40489;SDS011;26196;52.302;10.572;2023-08-21T11:58:42;5.25;;;1.13;;
40489;SDS011;26196;52.302;10.572;2023-08-21T12:07:18;3.20;;;1.02;;
40489;SDS011;26196;52.302;10.572;2023-08-21T12:11:18;1.90;;;0.90;;
40489;SDS011;26196;52.302;10.572;2023-08-21T12:15:19;2.47;;;1.20;;
40489;SDS011;26196;52.302;10.572;2023-08-21T12:19:20;2.55;;;1.20;;
40489;SDS011;26196;52.302;10.572;2023-08-21T12:23:22;2.65;;;1.02;;
40489;SDS011;26196;52.302;10.572;2023-08-21T12:32:00;3.80;;;1.02;;
40489;SDS011;26196;52.302;10.572;2023-08-21T12:36:01;2.88;;;0.98;;
40489;SDS011;26196;52.302;10.572;2023-08-21T12:40:03;2.50;;;1.08;;
40489;SDS011;26196;52.302;10.572;2023-08-21T12:44:04;2.38;;;1.02;;
40489;SDS011;26196;52.302;10.572;2023-08-21T12:48:04;6.23;;;1.10;;
40489;SDS011;26196;52.302;10.572;2023-08-21T12:52:05;3.60;;;1.20;;
40489;SDS011;26196;52.302;10.572;2023-08-21T13:00:41;5.28;;;1.70;;
40489;SDS011;26196;52.302;10.572;2023-08-21T13:04:41;7.27;;;1.70;;
40489;SDS011;26196;52.302;10.572;2023-08-21T13:17:54;3.72;;;1.27;;
40489;SDS011;26196;52.302;10.572;2023-08-21T13:21:54;4.97;;;1.40;;
40489;SDS011;26196;52.302;10.572;2023-08-21T13:25:54;6.30;;;1.70;;
40489;SDS011;26196;52.302;10.572;2023-08-21T14:20:35;3.85;;;0.85;;
40489;SDS011;26196;52.302;10.572;2023-08-21T14:38:25;3.25;;;0.70;;
40489;SDS011;26196;52.302;10.572;2023-08-21T14:42:25;3.15;;;0.90;;
40489;SDS011;26196;52.302;10.572;2023-08-21T14:51:06;2.17;;;0.85;;
40489;SDS011;26196;52.302;10.572;2023-08-21T15:04:18;1.58;;;0.90;;
40489;SDS011;26196;52.302;10.572;2023-08-21T15:35:55;2.28;;;0.70;;
40489;SDS011;26196;52.302;10.572;2023-08-21T15:39:55;2.47;;;0.77;;
40489;SDS011;26196;52.302;10.572;2023-08-21T15:48:30;3.80;;;0.77;;
40489;SDS011;26196;52.302;10.572;2023-08-21T15:52:31;3.00;;;1.25;;
40489;SDS011;26196;52.302;10.572;2023-08-21T16:10:18;4.80;;;1.05;;
40489;SDS011;26196;52.302;10.572;2023-08-21T16:14:18;1.80;;;0.80;;
40489;SDS011;26196;52.302;10.572;2023-08-21T16:18:19;5.25;;;1.23;;
40489;SDS011;26196;52.302;10.572;2023-08-21T16:22:19;1.63;;;0.70;;
40489;SDS011;26196;52.302;10.572;2023-08-21T16:26:20;4.60;;;0.95;;
40489;SDS011;26196;52.302;10.572;2023-08-21T16:34:55;4.75;;;0.90;;
40489;SDS011;26196;52.302;10.572;2023-08-21T16:38:55;5.73;;;1.30;;
40489;SDS011;26196;52.302;10.572;2023-08-21T17:49:09;10.50;;;1.15;;
40489;SDS011;26196;52.302;10.572;2023-08-21T17:53:10;12.32;;;1.30;;
40489;SDS011;26196;52.302;10.572;2023-08-21T17:57:10;14.60;;;1.50;;
40489;SDS011;26196;52.302;10.572;2023-08-21T18:24:15;6.57;;;1.45;;
40489;SDS011;26196;52.302;10.572;2023-08-21T18:32:52;4.85;;;0.93;;
40489;SDS011;26196;52.302;10.572;2023-08-21T18:36:52;3.37;;;1.00;;
40489;SDS011;26196;52.302;10.572;2023-08-21T18:45:28;5.38;;;1.08;;
40489;SDS011;26196;52.302;10.572;2023-08-21T19:17:07;7.47;;;1.85;;
40489;SDS011;26196;52.302;10.572;2023-08-21T19:53:21;4.97;;;1.30;;
40489;SDS011;26196;52.302;10.572;2023-08-21T20:01:58;7.93;;;1.60;;
40489;SDS011;26196;52.302;10.572;2023-08-21T20:10:37;6.70;;;2.03;;
40489;SDS011;26196;52.302;10.572;2023-08-21T20:14:42;9.35;;;1.40;;
40489;SDS011;26196;52.302;10.572;2023-08-21T20:23:15;5.82;;;1.25;;
40489;SDS011;26196;52.302;10.572;2023-08-21T20:27:15;4.28;;;1.27;;
40489;SDS011;26196;52.302;10.572;2023-08-21T20:31:16;9.37;;;1.23;;
40489;SDS011;26196;52.302;10.572;2023-08-21T20:35:16;5.80;;;1.10;;
40489;SDS011;26196;52.302;10.572;2023-08-21T20:39:17;3.83;;;1.17;;
40489;SDS011;26196;52.302;10.572;2023-08-21T20:43:17;5.67;;;1.40;;
40489;SDS011;26196;52.302;10.572;2023-08-21T20:47:17;5.07;;;1.10;;
40489;SDS011;26196;52.302;10.572;2023-08-21T20:55:55;5.40;;;1.30;;
40489;SDS011;26196;52.302;10.572;2023-08-21T20:59:56;4.95;;;1.30;;
40489;SDS011;26196;52.302;10.572;2023-08-21T21:03:57;3.00;;;1.10;;
40489;SDS011;26196;52.302;10.572;2023-08-21T21:12:32;3.47;;;1.10;;
40489;SDS011;26196;52.302;10.572;2023-08-21T21:16:32;4.55;;;1.25;;
40489;SDS011;26196;52.302;10.572;2023-08-21T21:20:33;6.10;;;0.97;;
40489;SDS011;26196;52.302;10.572;2023-08-21T21:29:08;2.28;;;1.13;;
40489;SDS011;26196;52.302;10.572;2023-08-21T21:33:11;4.75;;;1.20;;
40489;SDS011;26196;52.302;10.572;2023-08-21T21:37:11;5.67;;;1.10;;
40489;SDS011;26196;52.302;10.572;2023-08-21T21:45:56;3.88;;;0.82;;
40489;SDS011;26196;52.302;10.572;2023-08-21T21:49:57;2.40;;;1.00;;
40489;SDS011;26196;52.302;10.572;2023-08-21T21:53:58;5.00;;;1.35;;
40489;SDS011;26196;52.302;10.572;2023-08-21T21:57:58;3.13;;;1.20;;
40489;SDS011;26196;52.302;10.572;2023-08-21T22:01:58;2.53;;;1.30;;
40489;SDS011;26196;52.302;10.572;2023-08-21T22:10:39;3.72;;;1.08;;
40489;SDS011;26196;52.302;10.572;2023-08-21T22:14:40;2.40;;;1.27;;
40489;SDS011;26196;52.302;10.572;2023-08-21T22:18:40;2.95;;;0.90;;
40489;SDS011;26196;52.302;10.572;2023-08-21T22:27:18;2.08;;;1.00;;
40489;SDS011;26196;52.302;10.572;2023-08-21T22:31:19;3.37;;;1.10;;
40489;SDS011;26196;52.302;10.572;2023-08-21T22:35:19;2.07;;;1.00;;
40489;SDS011;26196;52.302;10.572;2023-08-21T22:39:19;3.33;;;1.10;;
40489;SDS011;26196;52.302;10.572;2023-08-21T22:53:13;1.73;;;0.75;;
40489;SDS011;26196;52.302;10.572;2023-08-21T23:06:57;4.95;;;1.10;;
40489;SDS011;26196;52.302;10.572;2023-08-21T23:10:58;3.30;;;1.00;;
40489;SDS011;26196;52.302;10.572;2023-08-21T23:19:35;3.35;;;1.00;;
40489;SDS011;26196;52.302;10.572;2023-08-21T23:23:36;2.93;;;0.90;;
40489;SDS011;26196;52.302;10.572;2023-08-21T23:27:36;2.37;;;0.90;;
40489;SDS011;26196;52.302;10.572;2023-08-21T23:31:36;2.70;;;0.90;;
40489;SDS011;26196;52.302;10.572;2023-08-21T23:40:14;2.00;;;0.90;;
40489;SDS011;26196;52.302;10.572;2023-08-21T23:44:16;4.05;;;1.00;;
40489;SDS011;26196;52.302;10.572;2023-08-21T23:48:16;3.10;;;1.27;;
40489;SDS011;26196;52.302;10.572;2023-08-21T23:56:51;3.70;;;1.05;;
